Time;durP1;ratioP1;P1;durP2;ratioP2;P2;SDS_P1;SDS_P2;PMS_P1;PMS_P2;Temp;Humidity;BMP_temperature;BMP_pressure;BME280_temperature;BME280_humidity;BME280_pressure;Samples;Min_cycle;Max_cycle;Signal;HPM_P1;HPM_P2
2022/05/20 00:00:54;;;;;;;11.32;3.20;;;;;;;-144.12;100.00;72078.50;5008248;28;20607;-64
2022/05/20 00:03:19;;;;;;;7.72;3.45;;;;;;;-144.12;100.00;72078.50;5022940;28;20512;-64
2022/05/20 00:05:45;;;;;;;7.80;3.45;;;;;;;-144.12;100.00;72078.50;5024478;28;20116;-63
2022/05/20 00:08:11;;;;;;;6.50;3.20;;;;;;;-144.12;100.00;72078.50;5027604;28;20104;-64
2022/05/20 00:10:37;;;;;;;6.80;2.95;;;;;;;-144.12;100.00;72078.50;5008021;28;20304;-65
2022/05/20 00:13:03;;;;;;;8.32;3.53;;;;;;;-144.12;100.00;72078.50;5022833;28;20120;-63
2022/05/20 00:15:30;;;;;;;7.15;3.53;;;;;;;-144.12;100.00;72078.50;5026547;28;20022;-64
2022/05/20 00:17:56;;;;;;;6.10;3.03;;;;;;;-144.12;100.00;72078.50;5026665;28;20038;-65
2022/05/20 00:20:23;;;;;;;5.82;2.97;;;;;;;-144.12;100.00;72078.50;5028198;28;20084;-63
2022/05/20 00:22:50;;;;;;;6.82;3.15;;;;;;;-144.12;100.00;72078.50;5019801;28;20076;-64
2022/05/20 00:28:01;;;;;;;6.45;3.65;;;;;;;-144.12;100.00;72078.50;5026657;28;20435;-63
2022/05/20 00:30:27;;;;;;;7.40;2.83;;;;;;;-144.12;100.00;72078.50;5028247;28;20033;-61
2022/05/20 00:32:52;;;;;;;7.85;3.17;;;;;;;-144.12;100.00;72078.50;5029004;28;20061;-63
2022/05/20 00:35:19;;;;;;;5.40;3.08;;;;;;;-144.12;100.00;72078.50;5024506;28;20036;-64
2022/05/20 00:37:45;;;;;;;7.53;2.83;;;;;;;-144.12;100.00;72078.50;5030371;28;20064;-64
2022/05/20 00:40:13;;;;;;;7.72;3.45;;;;;;;-144.12;100.00;72078.50;5029858;28;20029;-65
2022/05/20 00:42:40;;;;;;;7.43;2.95;;;;;;;-144.12;100.00;72078.50;5028030;28;20408;-65
2022/05/20 00:45:07;;;;;;;7.03;3.10;;;;;;;-144.12;100.00;72078.50;5024948;28;20041;-63
2022/05/20 00:47:33;;;;;;;8.30;3.10;;;;;;;-144.12;100.00;72078.50;5013092;28;20411;-64
2022/05/20 00:50:02;;;;;;;7.38;3.67;;;;;;;-144.12;100.00;72078.50;5029050;28;20116;-64
2022/05/20 00:52:32;;;;;;;7.85;3.33;;;;;;;-144.12;100.00;72078.50;5030675;28;20091;-65
2022/05/20 00:55:02;;;;;;;5.00;2.92;;;;;;;-144.12;100.00;72078.50;5021538;28;20396;-65
2022/05/20 00:57:35;;;;;;;5.85;3.15;;;;;;;-144.12;100.00;72078.50;5029409;28;20171;-65
2022/05/20 01:00:08;;;;;;;7.45;2.67;;;;;;;-144.12;100.00;72078.50;5030613;28;20033;-64
2022/05/20 01:02:35;;;;;;;5.85;2.97;;;;;;;-144.12;100.00;72078.50;5024694;28;20412;-65
2022/05/20 01:05:03;;;;;;;7.95;3.42;;;;;;;-144.12;100.00;72078.50;5028186;28;20040;-64
2022/05/20 01:07:35;;;;;;;6.32;3.30;;;;;;;-144.12;100.00;72078.50;5019235;28;20045;-64
2022/05/20 01:10:01;;;;;;;5.28;2.92;;;;;;;-144.12;100.00;72078.50;5034810;28;20044;-63
2022/05/20 01:12:28;;;;;;;6.47;3.38;;;;;;;-144.12;100.00;72078.50;5011969;28;20037;-65
2022/05/20 01:14:54;;;;;;;6.22;3.10;;;;;;;-144.12;100.00;72078.50;5029640;28;20167;-65
2022/05/20 01:17:20;;;;;;;6.57;3.40;;;;;;;-144.12;100.00;72078.50;5029350;28;20338;-65
2022/05/20 01:19:49;;;;;;;7.03;3.65;;;;;;;-144.12;100.00;72078.50;5029261;28;20052;-65
2022/05/20 01:22:25;;;;;;;5.65;3.10;;;;;;;-144.12;100.00;72078.50;5030313;28;20040;-64
2022/05/20 01:24:50;;;;;;;9.18;3.63;;;;;;;21.68;98.78;101131.09;5025056;28;20029;-64
2022/05/20 01:27:16;;;;;;;12.90;4.25;;;;;;;20.98;100.00;93554.50;5029541;28;20036;-65
2022/05/20 01:29:41;;;;;;;6.47;3.50;;;;;;;20.96;100.00;93551.66;5023137;28;20091;-63
2022/05/20 01:32:07;;;;;;;6.15;3.08;;;;;;;20.91;100.00;72078.50;5028252;28;20038;-65
2022/05/20 01:34:33;;;;;;;10.00;3.72;;;;;;;20.77;100.00;93524.59;4992851;28;20025;-64
2022/05/20 01:36:58;;;;;;;9.23;2.97;;;;;;;20.87;100.00;101178.97;5023753;28;20037;-63
2022/05/20 01:39:24;;;;;;;9.32;3.67;;;;;;;20.94;100.00;93547.75;5009114;28;20065;-64
2022/05/20 01:41:55;;;;;;;6.40;3.50;;;;;;;20.92;100.00;93545.94;5027779;28;20038;-64
2022/05/20 01:44:32;;;;;;;;;;;;;;;20.80;100.00;93528.88;5029757;28;20033;-64
2022/05/20 01:47:09;;;;;;;8.90;3.40;;;;;;;20.72;100.00;72078.50;5027963;28;19923;-63
2022/05/20 01:50:00;;;;;;;5.88;3.10;;;;;;;-144.12;100.00;72078.50;5028187;28;20125;-65
2022/05/20 01:52:40;;;;;;;8.10;3.60;;;;;;;20.55;100.00;72078.50;5024233;28;20037;-64
2022/05/20 01:55:12;;;;;;;7.80;3.47;;;;;;;20.59;100.00;72078.50;5021350;28;20532;-64
2022/05/20 01:58:03;;;;;;;8.68;3.85;;;;;;;20.54;100.00;93492.22;5004198;28;20132;-64
2022/05/20 02:00:31;;;;;;;6.28;3.28;;;;;;;20.33;100.00;93462.31;5025738;28;20044;-63
2022/05/20 02:03:02;;;;;;;7.15;3.15;;;;;;;20.26;100.00;72078.50;5026130;28;20504;-63
2022/05/20 02:05:38;;;;;;;;;;;;;;;20.19;100.00;72078.50;5028408;28;20037;-64
2022/05/20 02:08:08;;;;;;;9.00;2.78;;;;;;;20.18;100.00;93440.22;5025568;28;20061;-65
2022/05/20 02:10:46;;;;;;;10.38;3.63;;;;;;;20.01;100.00;72078.50;5029783;28;20037;-64
2022/05/20 02:13:15;;;;;;;4.20;2.45;;;;;;;-144.12;82.74;83820.41;5028924;28;20045;-64
2022/05/20 02:15:50;;;;;;;8.73;2.83;;;;;;;19.95;100.00;72078.50;5025616;28;20492;-65
2022/05/20 02:18:27;;;;;;;5.72;2.75;;;;;;;19.92;100.00;72078.50;5026974;28;20033;-64
2022/05/20 02:20:59;;;;;;;5.45;2.58;;;;;;;19.91;100.00;93486.16;5010557;28;20041;-64
2022/05/20 02:23:31;;;;;;;6.75;2.80;;;;;;;19.89;100.00;101227.31;5029587;28;20514;-64
2022/05/20 02:26:03;;;;;;;5.57;2.55;;;;;;;19.79;100.00;93486.16;5025499;28;20033;-64
2022/05/20 02:28:48;;;;;;;7.95;2.70;;;;;;;19.87;100.00;93396.84;5024731;28;20392;-62
2022/05/20 02:31:22;;;;;;;5.95;2.33;;;;;;;19.79;100.00;93385.44;5019608;28;20498;-62
2022/05/20 02:33:47;;;;;;;6.40;3.00;;;;;;;19.74;100.00;93486.16;5028479;28;20041;-62
2022/05/20 02:36:25;;;;;;;7.57;3.50;;;;;;;19.80;100.00;93486.16;5022830;28;20018;-63
2022/05/20 02:38:51;;;;;;;9.77;3.75;;;;;;;19.66;100.00;72078.50;5027407;28;20091;-64
2022/05/20 02:41:17;;;;;;;6.38;3.35;;;;;;;-144.12;100.00;72078.50;5028611;28;20109;-64
2022/05/20 02:43:43;;;;;;;8.80;3.22;;;;;;;19.64;100.00;93364.81;5028090;28;20125;-63
2022/05/20 02:46:09;;;;;;;7.45;2.20;;;;;;;19.54;100.00;72078.50;5023756;28;20308;-63
2022/05/20 02:48:34;;;;;;;11.15;2.90;;;;;;;-144.12;100.00;72078.50;5028422;28;20037;-63
2022/05/20 02:51:00;;;;;;;4.82;2.40;;;;;;;19.33;100.00;72078.50;5028883;28;20025;-64
2022/05/20 02:53:25;;;;;;;4.93;2.53;;;;;;;19.19;100.00;72078.50;5027284;28;20039;-65
2022/05/20 02:55:51;;;;;;;5.07;1.88;;;;;;;19.19;100.00;72078.50;5026479;28;20048;-65
2022/05/20 03:04:09;;;;;;;6.07;2.30;;;;;;;-97.85;100.00;101238.31;5028046;28;20040;-64
2022/05/20 03:06:36;;;;;;;4.15;2.15;;;;;;;19.20;86.90;101238.31;5009427;28;20044;-63
2022/05/20 03:09:02;;;;;;;4.28;2.15;;;;;;;-144.12;100.00;72078.50;5025098;28;20052;-64
2022/05/20 03:11:28;;;;;;;2.65;1.92;;;;;;;-144.12;100.00;72078.50;5010789;28;20492;-64
2022/05/20 03:13:53;;;;;;;4.35;2.47;;;;;;;-144.12;100.00;72078.50;5028323;28;20079;-62
2022/05/20 03:16:18;;;;;;;5.40;2.13;;;;;;;-144.12;100.00;72078.50;5009461;28;20388;-64
2022/05/20 03:18:44;;;;;;;2.70;1.85;;;;;;;19.18;100.00;72078.50;5021991;28;20036;-64
2022/05/20 03:21:09;;;;;;;5.22;1.95;;;;;;;19.21;100.00;72078.50;5026953;28;20388;-62
2022/05/20 03:23:34;;;;;;;2.92;1.80;;;;;;;19.14;100.00;72078.50;5028524;28;20036;-64
2022/05/20 03:26:04;;;;;;;3.80;1.52;;;;;;;-144.12;100.00;72078.50;5025612;28;20040;-64
2022/05/20 03:28:29;;;;;;;2.55;1.50;;;;;;;19.00;100.00;72078.50;5019643;28;20508;-63
2022/05/20 03:30:55;;;;;;;3.72;1.25;;;;;;;-144.12;100.00;72078.50;5025441;28;20029;-62
2022/05/20 03:33:20;;;;;;;1.73;1.42;;;;;;;19.05;100.00;72078.50;5026243;28;20404;-64
2022/05/20 03:35:48;;;;;;;1.60;1.00;;;;;;;-144.12;100.00;72078.50;5017973;28;20029;-64
2022/05/20 03:38:13;;;;;;;2.53;1.20;;;;;;;-144.12;100.00;72078.50;5019652;28;20044;-64
2022/05/20 03:40:39;;;;;;;1.85;1.33;;;;;;;18.86;100.00;72078.50;5021241;28;20029;-64
2022/05/20 03:43:05;;;;;;;1.92;1.02;;;;;;;-144.12;100.00;72078.50;5015669;28;20037;-64
2022/05/20 03:45:31;;;;;;;2.13;1.42;;;;;;;-144.12;100.00;72078.50;5016705;28;20377;-64
2022/05/20 03:47:56;;;;;;;2.92;1.42;;;;;;;18.73;100.00;72078.50;5021784;28;20049;-64
2022/05/20 03:50:21;;;;;;;5.07;1.75;;;;;;;18.62;100.00;72078.50;5028347;28;20079;-64
2022/05/20 03:52:47;;;;;;;1.98;1.05;;;;;;;-144.12;100.00;72078.50;5010108;28;20480;-64
2022/05/20 03:55:12;;;;;;;1.35;1.20;;;;;;;-144.12;100.00;72078.50;5017351;28;20026;-64
2022/05/20 03:57:38;;;;;;;1.33;1.00;;;;;;;18.45;100.00;72078.50;5023822;28;20041;-64
2022/05/20 04:00:04;;;;;;;3.33;1.17;;;;;;;18.45;100.00;101280.69;5026993;28;20377;-64
2022/05/20 04:02:36;;;;;;;2.78;0.88;;;;;;;18.43;100.00;72078.50;5029104;28;20038;-63
2022/05/20 04:05:02;;;;;;;2.03;1.08;;;;;;;18.45;100.00;72078.50;5023827;28;20041;-63
2022/05/20 04:07:27;;;;;;;1.83;0.90;;;;;;;18.50;100.00;72078.50;5018250;28;20048;-63
2022/05/20 04:09:53;;;;;;;1.75;1.05;;;;;;;18.39;100.00;72078.50;5030553;28;20041;-62
2022/05/20 04:12:34;;;;;;;1.58;0.95;;;;;;;18.35;100.00;72078.50;5031590;28;20037;-63
2022/05/20 04:15:00;;;;;;;1.83;1.00;;;;;;;-144.12;100.00;72078.50;5031307;28;20113;-64
2022/05/20 04:17:26;;;;;;;1.98;0.95;;;;;;;-144.12;100.00;72078.50;5008470;28;20135;-65
2022/05/20 04:19:52;;;;;;;1.35;0.93;;;;;;;-97.85;100.00;101299.78;5031005;28;20060;-64
2022/05/20 04:22:31;;;;;;;1.13;0.80;;;;;;;-144.12;100.00;72078.50;5030117;28;20025;-63
2022/05/20 04:24:56;;;;;;;1.52;1.00;;;;;;;-144.12;100.00;72078.50;5049958;28;20029;-61
2022/05/20 04:27:23;;;;;;;1.83;1.35;;;;;;;18.31;100.00;57151.75;5034273;28;20017;-64
2022/05/20 04:29:49;;;;;;;2.50;1.00;;;;;;;-144.12;100.00;72078.50;5027524;28;20044;-62
2022/05/20 04:32:14;;;;;;;1.75;1.13;;;;;;;18.19;100.00;72078.50;5029564;28;20037;-63
2022/05/20 04:34:40;;;;;;;1.35;1.10;;;;;;;-144.12;100.00;72078.50;5025295;28;20049;-63
2022/05/20 04:37:05;;;;;;;1.40;1.23;;;;;;;-144.12;100.00;72078.50;5030147;28;20021;-63
2022/05/20 04:39:31;;;;;;;1.98;1.10;;;;;;;18.29;100.00;72078.50;5015127;28;20128;-64
2022/05/20 04:47:28;;;;;;;3.53;1.33;;;;;;;-144.12;100.00;72078.50;5011456;28;20473;-64
2022/05/20 04:49:54;;;;;;;1.52;1.08;;;;;;;-144.12;100.00;72078.50;5027885;28;20041;-64
2022/05/20 04:52:20;;;;;;;2.13;1.35;;;;;;;-144.12;100.00;72078.50;5031810;28;20022;-61
2022/05/20 04:54:52;;;;;;;2.17;1.50;;;;;;;18.21;100.00;72078.50;5025510;28;20052;-64
2022/05/20 04:57:25;;;;;;;1.42;0.95;;;;;;;-144.12;100.00;72078.50;5036273;28;20385;-62
2022/05/20 04:59:52;;;;;;;4.72;1.08;;;;;;;-144.12;100.00;72078.50;5027640;28;20052;-63
2022/05/20 05:02:19;;;;;;;1.60;1.20;;;;;;;-144.12;100.00;72078.50;5023963;28;21123;-62
2022/05/20 05:04:44;;;;;;;1.55;1.17;;;;;;;-144.12;100.00;72078.50;5023793;28;20460;-63
2022/05/20 05:07:11;;;;;;;2.00;0.93;;;;;;;-144.12;100.00;72078.50;5024552;28;20056;-63
2022/05/20 05:09:41;;;;;;;2.47;1.35;;;;;;;-144.12;100.00;72078.50;5023339;28;20037;-62
2022/05/20 05:12:08;;;;;;;1.92;0.80;;;;;;;-144.12;100.00;72078.50;5015557;28;20026;-63
2022/05/20 05:14:37;;;;;;;1.65;1.25;;;;;;;18.43;100.00;72078.50;5019259;28;20048;-63
2022/05/20 05:17:08;;;;;;;4.22;1.10;;;;;;;-144.12;100.00;72078.50;5016987;28;20033;-62
2022/05/20 05:19:38;;;;;;;2.35;1.27;;;;;;;-144.12;100.00;72078.50;5023952;28;20021;-63
2022/05/20 05:22:07;;;;;;;1.35;1.08;;;;;;;-144.12;100.00;72078.50;5018363;28;20056;-64
2022/05/20 05:24:35;;;;;;;1.63;0.90;;;;;;;18.39;100.00;72078.50;5008700;28;20086;-62
2022/05/20 05:27:04;;;;;;;1.52;1.13;;;;;;;-144.12;100.00;72078.50;4997639;28;20044;-63
2022/05/20 05:29:30;;;;;;;2.55;1.10;;;;;;;18.69;100.00;72078.50;5023116;28;20025;-64
2022/05/20 05:31:57;;;;;;;4.18;1.48;;;;;;;-144.12;100.00;72078.50;5023680;28;20041;-62
2022/05/20 05:34:22;;;;;;;2.00;1.30;;;;;;;-144.12;100.00;72078.50;5010517;28;20033;-64
2022/05/20 05:36:48;;;;;;;1.70;1.08;;;;;;;20.00;100.00;72078.50;5018770;28;20083;-64
2022/05/20 05:39:14;;;;;;;1.92;1.15;;;;;;;20.78;100.00;72078.50;5009795;28;20029;-63
2022/05/20 05:41:40;;;;;;;1.30;0.80;;;;;;;-144.12;100.00;72078.50;5019194;28;20535;-64
2022/05/20 05:44:05;;;;;;;1.17;0.73;;;;;;;-144.12;100.00;72078.50;5018439;28;20061;-64
2022/05/20 05:46:31;;;;;;;3.10;0.70;;;;;;;21.01;100.00;72078.50;5022848;28;20063;-64
2022/05/20 05:48:57;;;;;;;0.88;0.60;;;;;;;-144.12;100.00;72078.50;5013124;28;20395;-63
2022/05/20 05:51:24;;;;;;;0.95;0.75;;;;;;;-144.12;100.00;72078.50;5029033;28;20037;-64
2022/05/20 05:53:49;;;;;;;0.50;0.45;;;;;;;-144.12;100.00;72078.50;5027741;28;20045;-63
2022/05/20 05:56:15;;;;;;;1.88;0.95;;;;;;;-144.12;100.00;72078.50;5017279;28;20030;-63
2022/05/20 05:58:40;;;;;;;0.80;0.70;;;;;;;-144.12;100.00;72078.50;5006379;28;20048;-64
2022/05/20 06:01:06;;;;;;;0.88;0.47;;;;;;;-144.12;100.00;72078.50;5031629;28;20045;-64
2022/05/20 06:03:32;;;;;;;1.05;0.70;;;;;;;-144.12;100.00;72078.50;5025574;28;20500;-64
2022/05/20 06:05:57;;;;;;;1.85;0.85;;;;;;;-144.12;100.00;72078.50;5029419;28;20125;-63
2022/05/20 06:08:24;;;;;;;2.25;0.80;;;;;;;-144.12;100.00;72078.50;5027554;28;20045;-64
2022/05/20 06:10:49;;;;;;;0.40;0.40;;;;;;;-144.12;100.00;72078.50;5028764;28;20043;-64
2022/05/20 06:13:27;;;;;;;4.95;0.77;;;;;;;-144.12;100.00;72078.50;5032261;28;20033;-64
2022/05/20 06:15:55;;;;;;;1.35;0.32;;;;;;;-144.12;100.00;72078.50;5030668;28;20404;-64
2022/05/20 06:18:21;;;;;;;3.60;0.55;;;;;;;-144.12;100.00;72078.50;5022499;28;20057;-63
2022/05/20 06:20:47;;;;;;;1.02;0.57;;;;;;;-144.12;100.00;72078.50;5027548;28;20040;-62
2022/05/20 06:23:13;;;;;;;1.05;0.77;;;;;;;19.68;100.00;72078.50;5007954;28;20377;-63
2022/05/20 06:25:39;;;;;;;1.08;0.73;;;;;;;-144.12;100.00;72078.50;5021276;28;20082;-63
2022/05/20 06:28:11;;;;;;;2.83;0.93;;;;;;;-144.12;100.00;72078.50;5013574;28;20033;-63
2022/05/20 06:30:38;;;;;;;1.10;0.70;;;;;;;19.53;100.00;72078.50;5025142;28;20045;-63
2022/05/20 06:33:03;;;;;;;0.88;0.60;;;;;;;19.35;100.00;72078.50;5013145;28;20021;-64
2022/05/20 06:40:59;;;;;;;2.58;0.70;;;;;;;19.81;100.00;72078.50;5023858;28;20037;-61
2022/05/20 06:43:26;;;;;;;1.35;0.47;;;;;;;-144.12;100.00;72078.50;5031618;28;20036;-63
2022/05/20 06:45:56;;;;;;;1.75;0.82;;;;;;;20.31;100.00;72078.50;5029197;28;20033;-63
2022/05/20 06:48:22;;;;;;;2.00;0.80;;;;;;;20.32;100.00;72078.50;5014733;28;20025;-63
2022/05/20 06:50:48;;;;;;;1.75;0.90;;;;;;;20.25;100.00;72078.50;5025702;28;20044;-63
2022/05/20 06:53:13;;;;;;;1.25;0.80;;;;;;;-144.12;100.00;72078.50;5028501;28;20472;-63
2022/05/20 06:55:38;;;;;;;0.77;0.60;;;;;;;20.16;100.00;72078.50;5034450;28;20305;-63
2022/05/20 06:58:04;;;;;;;2.33;0.70;;;;;;;20.03;100.00;72078.50;5034620;28;20030;-63
2022/05/20 07:00:30;;;;;;;2.20;0.93;;;;;;;20.50;100.00;72078.50;5028776;28;20540;-63
2022/05/20 07:02:55;;;;;;;0.63;0.63;;;;;;;20.07;100.00;72078.50;5027868;28;20033;-63
2022/05/20 07:05:21;;;;;;;0.98;0.65;;;;;;;20.07;100.00;72078.50;5001955;28;20333;-63
2022/05/20 07:07:47;;;;;;;0.45;0.40;;;;;;;20.16;100.00;72078.50;5025843;28;20148;-62
2022/05/20 07:10:14;;;;;;;0.65;0.30;;;;;;;20.22;100.00;72078.50;5026964;28;20447;-64
2022/05/20 07:12:40;;;;;;;3.83;0.88;;;;;;;-144.12;100.00;72078.50;5020604;28;20037;-63
2022/05/20 07:15:07;;;;;;;0.85;0.50;;;;;;;-144.12;100.00;72078.50;5017684;28;20049;-62
2022/05/20 07:17:32;;;;;;;1.33;0.70;;;;;;;-144.12;100.00;72078.50;5013749;28;20044;-62
2022/05/20 07:19:58;;;;;;;0.68;0.63;;;;;;;20.52;100.00;72078.50;5002098;28;20033;-63
2022/05/20 07:22:24;;;;;;;2.97;0.73;;;;;;;-144.12;100.00;72078.50;5016748;28;20033;-63
2022/05/20 07:24:50;;;;;;;0.70;0.65;;;;;;;20.79;100.00;72078.50;5018814;28;20034;-63
2022/05/20 07:27:16;;;;;;;0.63;0.50;;;;;;;20.95;100.00;72078.50;5019293;28;20037;-63
2022/05/20 07:29:42;;;;;;;0.68;0.38;;;;;;;21.01;100.00;72078.50;4990862;28;20507;-63
2022/05/20 07:32:08;;;;;;;1.20;0.55;;;;;;;-144.12;100.00;72078.50;5013998;28;20041;-63
2022/05/20 07:34:34;;;;;;;1.27;0.73;;;;;;;20.97;100.00;72078.50;4997434;28;20045;-63
2022/05/20 07:36:59;;;;;;;0.60;0.45;;;;;;;-144.12;100.00;72078.50;4998582;28;20040;-63
2022/05/20 07:39:26;;;;;;;0.90;0.50;;;;;;;21.04;100.00;72078.50;5016526;28;20033;-61
2022/05/20 07:41:52;;;;;;;0.40;0.32;;;;;;;-144.12;100.00;72078.50;5023997;28;20369;-62
2022/05/20 07:44:18;;;;;;;0.43;0.40;;;;;;;21.04;100.00;72078.50;5021575;28;20053;-64
2022/05/20 07:46:43;;;;;;;1.13;0.43;;;;;;;21.18;100.00;72078.50;5024941;28;20312;-62
2022/05/20 07:49:08;;;;;;;0.52;0.40;;;;;;;21.31;100.00;72078.50;5018741;28;20029;-63
2022/05/20 07:51:39;;;;;;;0.70;0.50;;;;;;;-144.12;100.00;72078.50;5026401;28;20495;-62
2022/05/20 07:54:15;;;;;;;1.30;0.57;;;;;;;-144.12;100.00;72078.50;5029552;28;20110;-62
2022/05/20 07:56:49;;;;;;;0.60;0.60;;;;;;;23.08;100.00;72078.50;5031620;28;20049;-63
2022/05/20 07:59:27;;;;;;;0.40;0.40;;;;;;;-144.12;100.00;72078.50;5029195;28;20519;-63
2022/05/20 08:01:54;;;;;;;0.77;0.57;;;;;;;23.08;100.00;72078.50;5023755;28;20370;-62
2022/05/20 08:04:55;;;;;;;0.52;0.52;;;;;;;23.08;100.00;72078.50;5030745;28;20365;-63
2022/05/20 08:07:25;;;;;;;0.30;0.30;;;;;;;23.08;100.00;72078.50;5024713;28;20042;-63
2022/05/20 08:09:50;;;;;;;0.30;0.30;;;;;;;23.08;100.00;72078.50;5026898;28;20077;-63
2022/05/20 08:12:16;;;;;;;0.40;0.38;;;;;;;-144.12;100.00;72078.50;5026022;28;20445;-63
2022/05/20 08:14:41;;;;;;;0.73;0.50;;;;;;;-144.12;100.00;72078.50;5028246;28;20224;-63
2022/05/20 08:17:07;;;;;;;0.70;0.32;;;;;;;23.08;100.00;72078.50;5030858;28;20059;-62
2022/05/20 08:19:33;;;;;;;0.88;0.50;;;;;;;23.21;100.00;72078.50;5025178;28;20484;-63
2022/05/20 08:21:59;;;;;;;0.50;0.50;;;;;;;-144.12;100.00;72078.50;5012333;28;20048;-62
2022/05/20 08:24:25;;;;;;;0.32;0.32;;;;;;;23.37;100.00;72078.50;5029843;28;20034;-63
2022/05/20 08:26:51;;;;;;;0.95;0.63;;;;;;;-144.12;100.00;72078.50;5030860;28;20033;-63
2022/05/20 08:29:17;;;;;;;1.15;0.60;;;;;;;23.43;100.00;72078.50;5030446;28;20491;-66
2022/05/20 08:31:43;;;;;;;0.60;0.40;;;;;;;23.43;100.00;72078.50;5022338;28;20044;-63
2022/05/20 08:34:09;;;;;;;0.38;0.30;;;;;;;-144.12;100.00;72078.50;5023097;28;20038;-62
2022/05/20 08:36:36;;;;;;;0.30;0.30;;;;;;;23.66;100.00;72078.50;5026467;28;20029;-62
2022/05/20 08:39:03;;;;;;;0.50;0.50;;;;;;;-144.12;100.00;72078.50;5027499;28;20603;-63
2022/05/20 08:41:33;;;;;;;0.70;0.60;;;;;;;23.80;100.00;72078.50;5021304;28;20033;-63
2022/05/20 08:43:59;;;;;;;1.27;0.73;;;;;;;-144.12;100.00;72078.50;5006627;28;20523;-63
2022/05/20 08:46:25;;;;;;;2.38;0.40;;;;;;;23.97;100.00;72078.50;5023918;28;20034;-63
2022/05/20 08:48:54;;;;;;;1.05;0.65;;;;;;;23.96;100.00;72078.50;5016181;28;20033;-63
2022/05/20 08:51:21;;;;;;;2.53;0.63;;;;;;;24.10;100.00;72078.50;5026223;28;20045;-63
2022/05/20 08:53:48;;;;;;;1.05;0.68;;;;;;;-144.12;100.00;72078.50;5011781;28;20045;-64
2022/05/20 08:56:19;;;;;;;1.05;0.60;;;;;;;-144.12;100.00;72078.50;5024495;28;20394;-63
2022/05/20 08:58:56;;;;;;;0.40;0.38;;;;;;;25.65;100.00;72078.50;5033016;28;20040;-62
2022/05/20 09:01:27;;;;;;;0.50;0.40;;;;;;;-144.12;100.00;72078.50;5032978;28;20034;-64
2022/05/20 09:03:52;;;;;;;0.75;0.45;;;;;;;-144.12;100.00;72078.50;5007409;28;20037;-63
2022/05/20 09:06:18;;;;;;;0.30;0.30;;;;;;;-144.12;100.00;72078.50;5032566;28;20049;-63
2022/05/20 09:08:45;;;;;;;0.22;0.22;;;;;;;-144.12;100.00;72078.50;5033900;28;20045;-63
2022/05/20 09:11:15;;;;;;;0.85;0.80;;;;;;;-144.12;100.00;94096.75;5029571;28;20030;-63
2022/05/20 09:16:31;;;;;;;0.43;0.38;;;;;;;-144.12;100.00;72078.50;5030017;28;20153;-64
2022/05/20 09:19:07;;;;;;;0.40;0.40;;;;;;;-144.12;100.00;72078.50;5033085;28;20041;-63
2022/05/20 09:21:57;;;;;;;0.40;0.35;;;;;;;-144.12;100.00;72078.50;5031281;28;20033;-63
2022/05/20 09:24:23;;;;;;;1.05;0.40;;;;;;;-144.12;100.00;72078.50;5025863;28;20049;-62
2022/05/20 09:27:00;;;;;;;0.85;0.65;;;;;;;-144.12;100.00;72078.50;5028822;28;20506;-63
2022/05/20 09:29:30;;;;;;;0.52;0.38;;;;;;;-144.12;100.00;72078.50;5026064;28;20075;-64
2022/05/20 09:32:00;;;;;;;2.78;0.50;;;;;;;-144.12;100.00;72078.50;5036488;28;20041;-63
2022/05/20 09:34:26;;;;;;;0.40;0.32;;;;;;;-144.12;100.00;72078.50;5029263;28;20029;-63
2022/05/20 09:36:58;;;;;;;1.25;0.88;;;;;;;-144.12;100.00;72078.50;5032767;28;20483;-63
2022/05/20 09:39:31;;;;;;;0.20;0.20;;;;;;;-144.12;100.00;72078.50;5021395;28;20049;-62
2022/05/20 09:42:04;;;;;;;0.50;0.28;;;;;;;-144.12;100.00;72078.50;5027219;28;20044;-62
2022/05/20 09:44:38;;;;;;;0.30;0.30;;;;;;;-144.12;100.00;72078.50;5028014;28;20048;-63
2022/05/20 09:47:33;;;;;;;1.50;0.40;;;;;;;-144.12;100.00;72078.50;5037469;28;20148;-62
2022/05/20 09:50:28;;;;;;;1.10;0.68;;;;;;;-144.12;100.00;72078.50;5028127;28;20062;-63
2022/05/20 09:53:00;;;;;;;2.70;0.20;;;;;;;-144.12;100.00;72078.50;5021792;28;20033;-64
2022/05/20 09:55:39;;;;;;;0.30;0.30;;;;;;;-144.12;100.00;72078.50;5030011;28;20289;-64
2022/05/20 09:58:14;;;;;;;1.17;0.65;;;;;;;-144.12;100.00;72078.50;5022179;28;20048;-63
2022/05/20 10:00:45;;;;;;;0.30;0.20;;;;;;;-144.12;100.00;72078.50;5030346;28;20033;-63
2022/05/20 10:03:16;;;;;;;;;;;;;;;-144.12;100.00;72078.50;5024337;28;20480;-63
2022/05/20 10:05:48;;;;;;;2.00;0.50;;;;;;;-144.12;100.00;72078.50;5030014;28;19924;-64
2022/05/20 10:08:32;;;;;;;0.25;0.25;;;;;;;-144.12;100.00;72078.50;5027746;28;20095;-64
2022/05/20 10:11:15;;;;;;;0.70;0.43;;;;;;;-144.12;100.00;72078.50;5025026;28;20128;-63
2022/05/20 10:14:01;;;;;;;0.50;0.45;;;;;;;-144.12;100.00;72078.50;5020953;28;20033;-63
2022/05/20 10:16:45;;;;;;;0.35;0.35;;;;;;;-144.12;100.00;72078.50;5023148;28;20049;-64
2022/05/20 10:19:31;;;;;;;1.63;0.40;;;;;;;-144.12;100.00;72078.50;5019303;28;20080;-62
2022/05/20 10:22:04;;;;;;;0.63;0.43;;;;;;;-144.12;100.00;72078.50;5015584;28;20277;-63
2022/05/20 10:24:41;;;;;;;1.13;0.70;;;;;;;-144.12;100.00;72078.50;5027202;28;20611;-63
2022/05/20 10:27:33;;;;;;;0.30;0.30;;;;;;;-144.12;100.00;72078.50;5006110;28;20061;-63
2022/05/20 10:33:04;;;;;;;0.50;0.30;;;;;;;-144.12;100.00;72078.50;5020319;28;20044;-61
2022/05/20 10:35:38;;;;;;;0.30;0.30;;;;;;;-144.12;100.00;72078.50;5027480;28;20483;-58
2022/05/20 10:38:16;;;;;;;0.30;0.30;;;;;;;-144.12;100.00;72078.50;5026278;28;20063;-58
2022/05/20 10:41:09;;;;;;;0.40;0.40;;;;;;;-144.12;100.00;72078.50;5018045;28;20381;-57
2022/05/20 10:49:41;;;;;;;;;;;;;;;-144.12;100.00;72078.50;5021675;28;20500;-60
2022/05/20 10:52:25;;;;;;;3.40;0.40;;;;;;;-144.12;100.00;72078.50;5019003;28;20327;-60
2022/05/20 10:55:22;;;;;;;0.70;0.40;;;;;;;-144.12;100.00;72078.50;5014984;28;20171;-61
2022/05/20 10:58:15;;;;;;;0.50;0.50;;;;;;;-144.12;100.00;72078.50;5017693;28;20034;-65
2022/05/20 11:00:50;;;;;;;0.43;0.43;;;;;;;-144.12;100.00;72078.50;5025674;28;20042;-58
2022/05/20 11:03:29;;;;;;;0.70;0.32;;;;;;;-144.12;100.00;72078.50;5016369;28;20045;-60
2022/05/20 11:06:16;;;;;;;0.63;0.50;;;;;;;-144.12;100.00;72078.50;5020329;28;20052;-59
2022/05/20 11:08:53;;;;;;;1.52;1.00;;;;;;;-144.12;100.00;72078.50;5020290;28;20038;-59
2022/05/20 11:11:40;;;;;;;1.15;0.57;;;;;;;-144.12;100.00;72078.50;5020649;28;20041;-60
2022/05/20 11:14:08;;;;;;;1.80;0.40;;;;;;;-144.12;100.00;72078.50;5014299;28;20045;-59
2022/05/20 11:16:55;;;;;;;0.50;0.50;;;;;;;-144.12;100.00;72078.50;5016651;28;20041;-58
2022/05/20 11:19:26;;;;;;;0.70;0.47;;;;;;;-144.12;100.00;72078.50;5016001;28;20033;-57
2022/05/20 11:21:54;;;;;;;2.60;0.40;;;;;;;-144.12;100.00;72078.50;5014744;28;20045;-58
2022/05/20 11:24:38;;;;;;;0.40;0.40;;;;;;;-144.12;100.00;72078.50;5015585;28;20266;-57
2022/05/20 11:27:20;;;;;;;0.38;0.38;;;;;;;-144.12;100.00;72078.50;5014793;28;20049;-59
2022/05/20 11:30:13;;;;;;;0.45;0.45;;;;;;;-144.12;100.00;72078.50;5011563;28;20044;-59
2022/05/20 11:33:19;;;;;;;1.40;0.40;;;;;;;-144.12;100.00;72078.50;5007758;28;20041;-59
2022/05/20 11:36:15;;;;;;;0.52;0.40;;;;;;;-144.12;100.00;72078.50;5002504;28;20038;-60
2022/05/20 11:38:59;;;;;;;0.73;0.50;;;;;;;-144.12;100.00;72078.50;5014749;28;20038;-60
2022/05/20 11:41:36;;;;;;;0.50;0.50;;;;;;;28.00;42.36;101189.00;5011227;28;20128;-60
2022/05/20 11:44:43;;;;;;;0.40;0.40;;;;;;;27.40;41.37;101191.50;5019212;28;20030;-59
2022/05/20 11:47:26;;;;;;;1.67;0.57;;;;;;;27.51;44.88;101186.28;4948751;28;20042;-61
2022/05/20 11:50:16;;;;;;;0.47;0.40;;;;;;;27.66;43.29;101165.88;4963523;28;20042;-58
2022/05/20 11:52:51;;;;;;;0.50;0.45;;;;;;;27.71;44.47;101156.19;5006675;28;20073;-60
2022/05/20 11:55:24;;;;;;;1.52;0.60;;;;;;;27.87;43.15;101157.91;5019729;28;20034;-59
2022/05/20 11:58:01;;;;;;;0.30;0.30;;;;;;;28.03;44.14;101147.28;5018647;28;20041;-57
2022/05/20 12:00:29;;;;;;;4.28;0.70;;;;;;;27.99;42.84;101146.69;5015162;28;20039;-58
2022/05/20 12:03:07;;;;;;;0.50;0.40;;;;;;;28.05;42.33;101142.06;5024272;28;20037;-62